Terminal Aerodrome Forecast
Issued by NWS Jackson, MS

Home | Current Version | Previous Version | Text Only | Print | Product List | Glossary On
Versions: 1 2 3 4 5 6 7 8 9 10 11 12 13 14
000
FTUS44 KMEG 292334
TAFTUP
TAF
KTUP 292334Z 3000/3024 00000KT P6SM SCT250
      TEMPO 3010/3013 4SM BR
     FM301500 02005KT P6SM FEW050=

USA.gov is the U.S. government's official web portal to all federal, state and local government web resources and services.